createdAt,value
2023-04-20T00:02:29.384Z,95407.81
2023-04-20T00:05:01.265Z,95406.28
2023-04-20T00:07:34.220Z,95394.38
2023-04-20T00:10:07.017Z,95389.22
2023-04-20T00:12:38.662Z,95382.28
2023-04-20T00:15:10.918Z,95384.69
2023-04-20T00:17:43.501Z,95381.28
2023-04-20T00:20:15.422Z,95371.47
2023-04-20T00:22:46.964Z,95366.84
2023-04-20T00:25:18.541Z,95363.88
2023-04-20T00:27:50.080Z,95361.31
2023-04-20T00:30:21.597Z,95359.44
2023-04-20T00:32:53.243Z,95357.56
2023-04-20T00:35:24.879Z,95352.72
2023-04-20T00:37:56.688Z,95343.69
2023-04-20T00:40:28.230Z,95338.63
2023-04-20T00:43:11.343Z,95341.69
2023-04-20T00:45:42.875Z,95332.31
2023-04-20T00:48:14.924Z,95323.63
2023-04-20T00:50:47.195Z,95325.47
2023-04-20T00:53:19.585Z,95321.28
2023-04-20T00:55:51.258Z,95324.63
2023-04-20T00:58:22.804Z,95311.47
2023-04-20T01:00:54.338Z,95313.34
2023-04-20T01:03:26.076Z,95304.00
2023-04-20T01:05:57.867Z,95300.88
2023-04-20T01:08:29.480Z,95302.47
2023-04-20T01:11:00.995Z,95288.00
2023-04-20T01:13:32.534Z,95288.88
2023-04-20T01:16:04.126Z,95288.53
2023-04-20T01:18:44.030Z,95295.78
2023-04-20T01:21:17.804Z,95294.72
2023-04-20T01:23:49.835Z,95299.22
2023-04-20T01:26:23.868Z,95298.13
2023-04-20T01:28:55.608Z,95298.44
2023-04-20T01:31:27.353Z,95291.06
2023-04-20T01:34:00.319Z,95287.44
2023-04-20T01:36:32.203Z,95285.91
2023-04-20T01:39:03.838Z,95288.00
2023-04-20T01:41:35.489Z,95284.25
2023-04-20T01:44:07.006Z,95283.53
2023-04-20T01:46:39.648Z,95276.44
2023-04-20T01:49:11.250Z,95277.00
2023-04-20T01:51:42.742Z,95275.13
2023-04-20T01:54:14.242Z,95279.97
2023-04-20T01:56:45.741Z,95275.69
2023-04-20T01:59:17.404Z,95270.50
2023-04-20T02:01:49.394Z,95264.44
2023-04-20T02:04:21.486Z,95259.47
2023-04-20T02:06:53.013Z,95255.28
2023-04-20T02:09:24.494Z,95252.91
2023-04-20T02:11:56.806Z,95247.84
2023-04-20T02:14:28.457Z,95249.28
2023-04-20T02:17:00.903Z,95253.38
2023-04-20T02:19:32.599Z,95255.69
2023-04-20T02:22:04.165Z,95250.28
2023-04-20T02:24:35.798Z,95251.75
2023-04-20T02:27:07.353Z,95252.41
2023-04-20T02:29:39.007Z,95253.75
2023-04-20T02:32:10.546Z,95250.00
2023-04-20T02:34:42.124Z,95259.19
2023-04-20T02:37:13.602Z,95256.88
2023-04-20T02:39:45.291Z,95249.72
2023-04-20T02:42:16.817Z,95251.25
2023-04-20T02:44:48.535Z,95249.03
2023-04-20T02:47:20.190Z,95249.16
2023-04-20T02:49:51.742Z,95245.72
2023-04-20T02:52:23.715Z,95242.75
2023-04-20T02:54:55.309Z,95239.75
2023-04-20T02:57:26.855Z,95234.91
2023-04-20T02:59:58.374Z,95226.47
2023-04-20T03:02:30.138Z,95229.75
2023-04-20T03:05:02.086Z,95224.81
2023-04-20T03:07:33.932Z,95218.66
2023-04-20T03:10:06.263Z,95223.84
2023-04-20T03:12:37.670Z,95214.28
2023-04-20T03:15:10.231Z,95219.22
2023-04-20T03:17:41.831Z,95220.03
2023-04-20T03:20:14.786Z,95214.94
2023-04-20T03:22:46.859Z,95208.66
2023-04-20T03:25:18.651Z,95209.66
2023-04-20T03:27:50.255Z,95213.75
2023-04-20T03:30:21.872Z,95210.88
2023-04-20T03:32:53.486Z,95206.00
2023-04-20T03:35:25.063Z,95203.16
2023-04-20T03:37:56.679Z,95210.97
2023-04-20T03:40:28.307Z,95201.59
2023-04-20T03:42:59.893Z,95200.03
2023-04-20T03:45:31.363Z,95208.09
2023-04-20T03:48:02.956Z,95201.34
2023-04-20T03:50:34.627Z,95205.34
2023-04-20T03:53:06.266Z,95196.06
2023-04-20T03:55:37.777Z,95190.88
2023-04-20T03:58:09.460Z,95193.63
2023-04-20T04:00:41.032Z,95189.09
2023-04-20T04:03:12.762Z,95185.00
2023-04-20T04:05:44.639Z,95174.50
2023-04-20T04:08:16.164Z,95180.16
2023-04-20T04:10:47.645Z,95187.41
2023-04-20T04:13:19.183Z,95182.91
2023-04-20T04:15:50.918Z,95181.81
2023-04-20T04:18:22.545Z,95180.84
2023-04-20T04:20:54.053Z,95182.28
2023-04-20T04:23:26.312Z,95179.28
2023-04-20T04:25:58.676Z,95176.22
2023-04-20T04:28:30.087Z,95174.91
2023-04-20T04:31:01.679Z,95175.69
2023-04-20T04:33:34.219Z,95163.25
2023-04-20T04:36:07.118Z,95167.84
2023-04-20T04:38:38.792Z,95175.69
2023-04-20T04:41:12.627Z,95166.56
2023-04-20T04:43:45.620Z,95166.03
2023-04-20T04:46:17.578Z,95177.47
2023-04-20T04:48:49.987Z,95183.53
2023-04-20T04:51:21.411Z,95177.13
2023-04-20T04:53:52.938Z,95171.59
2023-04-20T04:56:24.687Z,95169.41
2023-04-20T04:58:56.263Z,95166.31
2023-04-20T05:01:27.757Z,95168.88
2023-04-20T05:03:59.564Z,95183.84
2023-04-20T05:06:31.382Z,95171.75
2023-04-20T05:09:02.911Z,95164.00
2023-04-20T05:11:34.441Z,95164.88
2023-04-20T05:14:06.068Z,95175.00
2023-04-20T05:16:37.984Z,95171.59
2023-04-20T05:19:09.693Z,95177.84
2023-04-20T05:21:41.270Z,95180.00
2023-04-20T05:24:12.836Z,95173.97
2023-04-20T05:26:44.369Z,95178.91
2023-04-20T05:29:16.836Z,95163.94
2023-04-20T05:31:48.560Z,95171.66
2023-04-20T05:34:20.275Z,95171.31
2023-04-20T05:36:52.253Z,95168.31
2023-04-20T05:39:23.841Z,95169.78
2023-04-20T05:41:55.410Z,95168.84
2023-04-20T05:44:26.985Z,95163.88
2023-04-20T05:46:58.597Z,95170.16
2023-04-20T05:49:30.275Z,95169.16
2023-04-20T05:52:02.355Z,95167.47
2023-04-20T05:54:33.932Z,95170.97
2023-04-20T05:57:05.797Z,95167.06
2023-04-20T05:59:37.634Z,95164.44
2023-04-20T06:02:09.254Z,95163.28
2023-04-20T06:04:42.529Z,95161.50
2023-04-20T06:07:14.188Z,95156.66
2023-04-20T06:09:45.994Z,95157.03
2023-04-20T06:12:17.445Z,95157.72
2023-04-20T06:14:48.960Z,95148.06
2023-04-20T06:17:20.385Z,95151.69
2023-04-20T06:19:51.995Z,95150.75
2023-04-20T06:22:23.512Z,95144.53
2023-04-20T06:24:55.292Z,95143.59
2023-04-20T06:27:26.809Z,95134.97
2023-04-20T06:29:58.364Z,95137.38
2023-04-20T06:32:29.969Z,95135.16
2023-04-20T06:35:01.573Z,95129.19
2023-04-20T06:37:37.322Z,95121.06
2023-04-20T06:40:09.394Z,95124.06
2023-04-20T06:42:41.143Z,95123.53
2023-04-20T06:45:12.758Z,95130.03
2023-04-20T06:47:44.346Z,95136.41
2023-04-20T06:50:16.138Z,95145.91
2023-04-20T06:52:48.369Z,95129.59
2023-04-20T06:55:19.883Z,95128.22
2023-04-20T06:57:53.402Z,95131.13
2023-04-20T07:00:27.722Z,95134.69
2023-04-20T07:02:59.450Z,95140.78
2023-04-20T07:05:31.159Z,95134.88
2023-04-20T07:08:02.864Z,95134.28
2023-04-20T07:10:34.496Z,95126.59
2023-04-20T07:13:06.518Z,95122.34
2023-04-20T07:15:38.138Z,95130.19
2023-04-20T07:18:09.721Z,95134.63
2023-04-20T07:20:41.233Z,95146.56
2023-04-20T07:23:12.864Z,95146.06
2023-04-20T07:25:44.323Z,95144.13
2023-04-20T07:28:15.891Z,95151.13
2023-04-20T07:30:47.487Z,95152.22
2023-04-20T07:33:19.103Z,95158.69
2023-04-20T07:35:50.594Z,95160.06
2023-04-20T07:38:22.209Z,95162.63
2023-04-20T07:40:53.755Z,95164.16
2023-04-20T07:43:25.456Z,95163.75
2023-04-20T07:45:57.002Z,95166.38
2023-04-20T07:48:28.606Z,95158.50
2023-04-20T07:51:00.128Z,95156.53
2023-04-20T07:53:31.692Z,95154.47
2023-04-20T07:58:52.419Z,95147.00
2023-04-20T08:01:25.506Z,95149.03
2023-04-20T08:03:57.204Z,95145.03
2023-04-20T08:06:29.097Z,95137.97
2023-04-20T08:09:00.571Z,95132.31
2023-04-20T08:11:32.092Z,95139.31
2023-04-20T08:14:03.677Z,95145.19
2023-04-20T08:16:35.234Z,95143.84
2023-04-20T08:19:10.281Z,95155.13
2023-04-20T08:21:45.244Z,95147.38
2023-04-20T08:24:17.245Z,95145.50
2023-04-20T08:26:49.491Z,95141.91
2023-04-20T08:29:21.180Z,95152.41
2023-04-20T08:31:53.064Z,95157.34
2023-04-20T08:34:24.902Z,95150.69
2023-04-20T08:36:56.535Z,95150.69
2023-04-20T08:39:28.101Z,95146.25
2023-04-20T08:41:59.669Z,95136.44
2023-04-20T08:44:31.743Z,95143.09
2023-04-20T08:47:03.948Z,95158.22
2023-04-20T08:49:39.360Z,95153.66
2023-04-20T08:52:13.963Z,95162.00
2023-04-20T08:54:55.954Z,95166.38
2023-04-20T08:57:29.213Z,95168.84
2023-04-20T09:00:02.378Z,95163.78
2023-04-20T09:02:34.129Z,95161.13
2023-04-20T09:05:06.872Z,95159.25
2023-04-20T09:07:39.843Z,95152.59
2023-04-20T09:10:11.462Z,95146.72
2023-04-20T09:12:43.208Z,95143.03
2023-04-20T09:15:31.198Z,95142.94
2023-04-20T09:18:17.548Z,95141.00
2023-04-20T09:20:49.194Z,95152.63
2023-04-20T09:23:21.562Z,95147.91
2023-04-20T09:25:53.178Z,95143.91
2023-04-20T09:28:35.069Z,95142.28
2023-04-20T09:31:17.007Z,95133.06
2023-04-20T09:34:02.648Z,95132.72
2023-04-20T09:36:45.160Z,95128.81
2023-04-20T09:39:17.598Z,95119.28
2023-04-20T09:41:51.775Z,95115.66
2023-04-20T09:44:23.641Z,95115.91
2023-04-20T09:46:55.290Z,95111.75
2023-04-20T09:49:27.762Z,95111.03
2023-04-20T09:52:02.987Z,95111.34
2023-04-20T09:54:37.278Z,95107.56
2023-04-20T09:57:09.884Z,95105.47
2023-04-20T09:59:47.220Z,95102.25
2023-04-20T10:02:18.795Z,95103.28
2023-04-20T10:04:57.016Z,95109.50
2023-04-20T10:07:31.685Z,95114.31
2023-04-20T10:10:13.765Z,95111.19
2023-04-20T10:12:47.916Z,95109.38
2023-04-20T10:15:21.718Z,95109.50
2023-04-20T10:17:53.901Z,95107.22
2023-04-20T10:20:28.130Z,95113.59
2023-04-20T10:23:11.393Z,95111.41
2023-04-20T10:25:45.006Z,95101.91
2023-04-20T10:28:16.570Z,95099.63
2023-04-20T10:30:53.470Z,95091.66
2023-04-20T10:33:25.133Z,95092.06
2023-04-20T10:35:58.878Z,95098.41
2023-04-20T10:38:34.640Z,95101.22
2023-04-20T10:41:07.796Z,95099.53
2023-04-20T10:43:42.328Z,95091.94
2023-04-20T10:46:24.251Z,95091.22
2023-04-20T10:49:03.692Z,95099.28
2023-04-20T10:51:36.265Z,95097.31
2023-04-20T10:54:08.734Z,95103.59
2023-04-20T10:56:43.041Z,95098.09
2023-04-20T10:59:19.855Z,95086.22
2023-04-20T11:01:52.279Z,95084.06
2023-04-20T11:04:32.909Z,95074.81
2023-04-20T11:07:09.703Z,95072.31
2023-04-20T11:09:43.057Z,95073.38
2023-04-20T11:12:17.952Z,95060.59
2023-04-20T11:14:54.635Z,95070.03
2023-04-20T11:17:36.777Z,95061.19
2023-04-20T11:20:13.305Z,95062.25
2023-04-20T11:22:45.186Z,95055.22
2023-04-20T11:25:16.763Z,95054.94
2023-04-20T11:27:48.306Z,95054.47
2023-04-20T11:30:21.069Z,95049.53
2023-04-20T11:32:55.727Z,95050.84
2023-04-20T11:35:27.565Z,95050.72
2023-04-20T11:37:59.053Z,95047.38
2023-04-20T11:40:30.618Z,95040.31
2023-04-20T11:43:02.213Z,95029.16
2023-04-20T11:45:36.150Z,95042.69
2023-04-20T11:48:08.254Z,95041.75
2023-04-20T11:50:42.397Z,95039.88
2023-04-20T11:53:14.861Z,95041.91
2023-04-20T11:55:46.487Z,95033.22
2023-04-20T11:58:17.950Z,95029.59
2023-04-20T12:00:49.774Z,95031.41
2023-04-20T12:03:22.155Z,95033.63
2023-04-20T12:05:54.245Z,95034.94
2023-04-20T12:08:25.886Z,95033.16
2023-04-20T12:10:58.714Z,95043.66
2023-04-20T12:13:30.408Z,95039.41
2023-04-20T12:16:01.996Z,95029.06
2023-04-20T12:18:33.523Z,95028.53
2023-04-20T12:21:05.479Z,95033.28
2023-04-20T12:23:37.129Z,95034.06
2023-04-20T12:26:08.674Z,95028.94
2023-04-20T12:28:40.253Z,95019.81
2023-04-20T12:31:11.814Z,95018.19
2023-04-20T12:33:44.271Z,95019.81
2023-04-20T12:36:15.863Z,95025.81
2023-04-20T12:38:47.357Z,95014.88
2023-04-20T12:41:18.865Z,95017.53
2023-04-20T12:43:51.105Z,95009.59
2023-04-20T12:46:22.877Z,95010.84
2023-04-20T12:48:54.446Z,95012.63
2023-04-20T12:51:27.119Z,95012.59
2023-04-20T12:53:58.704Z,95022.09
2023-04-20T12:56:30.281Z,95019.88
2023-04-20T12:59:01.904Z,95016.81
2023-04-20T13:01:33.625Z,95011.25
2023-04-20T13:04:05.493Z,94997.47
2023-04-20T13:06:37.114Z,95007.28
2023-04-20T13:09:08.674Z,95005.13
2023-04-20T13:11:40.334Z,95011.66
2023-04-20T13:14:12.056Z,95010.22
2023-04-20T13:16:43.789Z,94994.66
2023-04-20T13:19:15.744Z,94991.19
2023-04-20T13:21:47.343Z,94988.78
2023-04-20T13:24:19.127Z,94984.91
2023-04-20T13:26:56.557Z,94990.66
2023-04-20T13:29:28.341Z,94997.59
2023-04-20T13:32:00.138Z,94994.56
2023-04-20T13:34:31.719Z,94989.31
2023-04-20T13:37:03.477Z,94990.91
2023-04-20T13:39:35.047Z,94995.19
2023-04-20T13:42:06.600Z,94993.47
2023-04-20T13:44:38.084Z,94999.56
2023-04-20T13:47:09.740Z,95002.94
2023-04-20T13:49:41.293Z,95004.28
2023-04-20T13:52:12.810Z,94991.47
2023-04-20T13:54:44.300Z,94983.94
2023-04-20T13:57:16.061Z,94981.78
2023-04-20T13:59:47.682Z,94995.81
2023-04-20T14:02:19.464Z,94989.03
2023-04-20T14:04:51.100Z,94987.38
2023-04-20T14:07:22.982Z,94990.22
2023-04-20T14:09:56.493Z,94988.34
2023-04-20T14:12:28.889Z,94991.00
2023-04-20T14:15:00.892Z,94979.16
2023-04-20T14:17:32.630Z,94978.06
2023-04-20T14:20:04.449Z,94974.31
2023-04-20T14:22:37.329Z,94973.91
2023-04-20T14:25:09.197Z,94983.16
2023-04-20T14:27:40.736Z,94987.91
2023-04-20T14:30:13.045Z,94985.31
2023-04-20T14:32:53.589Z,94979.22
2023-04-20T14:35:26.465Z,94971.25
2023-04-20T14:37:58.013Z,94972.44
2023-04-20T14:40:29.609Z,94978.13
2023-04-20T14:43:01.157Z,94973.59
2023-04-20T14:45:32.634Z,94973.59
2023-04-20T14:48:04.354Z,94970.13
2023-04-20T14:50:36.026Z,94977.34
2023-04-20T14:53:07.711Z,94975.03
2023-04-20T14:55:39.204Z,94970.13
2023-04-20T14:58:10.916Z,94957.53
2023-04-20T15:00:42.481Z,94958.75
2023-04-20T15:03:14.247Z,94958.28
2023-04-20T15:05:47.023Z,94953.94
2023-04-20T15:08:18.787Z,94957.00
2023-04-20T15:10:52.570Z,94964.41
2023-04-20T15:13:24.710Z,94962.81
2023-04-20T15:15:56.302Z,94959.53
2023-04-20T15:18:27.978Z,94944.34
2023-04-20T15:20:59.553Z,94947.00
2023-04-20T15:23:31.129Z,94948.59
2023-04-20T15:26:02.662Z,94946.28
2023-04-20T15:28:34.212Z,94956.19
2023-04-20T15:31:07.718Z,94959.56
2023-04-20T15:33:39.235Z,94970.13
2023-04-20T15:36:12.191Z,94966.34
2023-04-20T15:38:43.788Z,94972.00
2023-04-20T15:41:16.373Z,94975.78
2023-04-20T15:43:47.941Z,94975.78
2023-04-20T15:46:23.199Z,94972.00
2023-04-20T15:48:55.005Z,94971.25
2023-04-20T15:51:28.055Z,94956.47
2023-04-20T15:53:59.664Z,94957.22
2023-04-20T15:56:31.301Z,94954.16
2023-04-20T15:59:03.069Z,94954.91
2023-04-20T16:01:34.589Z,94956.38
2023-04-20T16:04:06.428Z,94943.09
2023-04-20T16:06:38.026Z,94954.53
2023-04-20T16:09:09.564Z,94957.22
2023-04-20T16:11:41.368Z,94952.28
2023-04-20T16:14:12.906Z,94957.22
2023-04-20T16:16:44.416Z,94954.56
2023-04-20T16:19:15.895Z,94954.72
2023-04-20T16:21:47.354Z,94955.84
2023-04-20T16:24:19.057Z,94957.34
2023-04-20T16:26:51.158Z,94954.47
2023-04-20T16:29:22.985Z,94952.88
2023-04-20T16:31:54.547Z,94951.00
2023-04-20T16:34:26.164Z,94952.09
2023-04-20T16:36:57.755Z,94954.38
2023-04-20T16:39:29.309Z,94953.56
2023-04-20T16:42:01.341Z,94961.06
2023-04-20T16:44:32.909Z,94965.22
2023-04-20T16:47:04.621Z,94967.47
2023-04-20T16:49:36.302Z,94972.56
2023-04-20T16:52:08.678Z,94984.31
2023-04-20T16:54:41.660Z,94985.72
2023-04-20T16:57:13.223Z,94992.03
2023-04-20T16:59:45.895Z,94979.13
2023-04-20T17:02:17.720Z,94988.66
2023-04-20T17:04:49.323Z,94981.84
2023-04-20T17:07:20.878Z,94985.63
2023-04-20T17:09:52.378Z,94986.69
2023-04-20T17:12:23.979Z,94995.03
2023-04-20T17:14:55.895Z,94992.34
2023-04-20T17:17:28.377Z,94987.28
2023-04-20T17:20:00.236Z,94988.94
2023-04-20T17:22:31.799Z,94994.47
2023-04-20T17:25:07.044Z,95002.28
2023-04-20T17:27:39.058Z,95001.34
2023-04-20T17:30:11.190Z,95002.94
2023-04-20T17:32:42.745Z,94999.13
2023-04-20T17:35:14.266Z,94997.66
2023-04-20T17:37:45.812Z,95003.66
2023-04-20T17:40:17.588Z,95006.31
2023-04-20T17:42:49.100Z,95001.00
2023-04-20T17:45:20.678Z,95009.06
2023-04-20T17:47:53.578Z,95007.53
2023-04-20T17:50:25.293Z,95015.03
2023-04-20T17:52:56.819Z,95023.22
2023-04-20T17:55:28.340Z,95017.50
2023-04-20T17:57:59.964Z,95020.72
2023-04-20T18:00:31.461Z,95030.00
2023-04-20T18:03:03.123Z,95037.19
2023-04-20T18:05:34.890Z,95041.69
2023-04-20T18:08:06.378Z,95049.47
2023-04-20T18:10:38.313Z,95057.84
2023-04-20T18:13:09.951Z,95054.16
2023-04-20T18:15:41.577Z,95068.53
2023-04-20T18:18:13.066Z,95078.00
2023-04-20T18:20:44.789Z,95076.34
2023-04-20T18:23:17.231Z,95067.63
2023-04-20T18:25:48.927Z,95076.81
2023-04-20T18:28:20.523Z,95069.41
2023-04-20T18:30:52.126Z,95073.84
2023-04-20T18:33:23.636Z,95066.66
2023-04-20T18:35:55.300Z,95074.03
2023-04-20T18:38:26.850Z,95076.13
2023-04-20T18:40:59.839Z,95081.50
2023-04-20T18:43:31.638Z,95088.72
2023-04-20T18:46:03.150Z,95100.09
2023-04-20T18:48:34.837Z,95103.94
2023-04-20T18:51:06.647Z,95099.06
2023-04-20T18:53:38.257Z,95098.78
2023-04-20T18:56:10.338Z,95097.13
2023-04-20T18:58:41.964Z,95098.97
2023-04-20T19:01:13.705Z,95101.63
2023-04-20T19:03:47.876Z,95098.50
2023-04-20T19:06:19.921Z,95109.66
2023-04-20T19:08:51.470Z,95110.94
2023-04-20T19:11:23.335Z,95113.59
2023-04-20T19:13:54.986Z,95116.84
2023-04-20T19:16:31.211Z,95117.63
2023-04-20T19:19:03.880Z,95118.72
2023-04-20T19:21:35.523Z,95130.66
2023-04-20T19:24:07.620Z,95127.66
2023-04-20T19:26:39.218Z,95132.38
2023-04-20T19:29:12.417Z,95129.56
2023-04-20T19:31:44.451Z,95131.28
2023-04-20T19:34:16.403Z,95147.69
2023-04-20T19:36:48.454Z,95144.69
2023-04-20T19:39:20.428Z,95149.34
2023-04-20T19:41:52.028Z,95150.59
2023-04-20T19:44:23.623Z,95154.72
2023-04-20T19:46:55.763Z,95161.53
2023-04-20T19:49:27.442Z,95154.38
2023-04-20T19:51:59.269Z,95154.72
2023-04-20T19:54:31.028Z,95159.25
2023-04-20T19:57:02.777Z,95160.72
2023-04-20T19:59:37.435Z,95164.78
2023-04-20T20:02:09.134Z,95155.31
2023-04-20T20:04:41.901Z,95165.84
2023-04-20T20:07:13.625Z,95163.25
2023-04-20T20:09:45.170Z,95170.38
2023-04-20T20:12:16.981Z,95167.38
2023-04-20T20:14:48.584Z,95171.47
2023-04-20T20:17:20.840Z,95159.50
2023-04-20T20:19:53.766Z,95163.38
2023-04-20T20:22:26.788Z,95159.94
2023-04-20T20:24:58.938Z,95161.06
2023-04-20T20:27:31.002Z,95164.19
2023-04-20T20:30:02.605Z,95152.94
2023-04-20T20:32:34.312Z,95163.59
2023-04-20T20:35:09.295Z,95177.09
2023-04-20T20:37:41.676Z,95166.78
2023-04-20T20:40:15.145Z,95172.66
2023-04-20T20:42:47.953Z,95164.53
2023-04-20T20:45:19.630Z,95165.88
2023-04-20T20:47:51.529Z,95178.78
2023-04-20T20:50:23.342Z,95170.84
2023-04-20T20:52:55.037Z,95168.75
2023-04-20T20:55:27.575Z,95175.13
2023-04-20T20:57:59.147Z,95177.13
2023-04-20T21:00:31.619Z,95176.56
2023-04-20T21:03:03.506Z,95187.31
2023-04-20T21:05:35.786Z,95189.19
2023-04-20T21:08:10.033Z,95179.38
2023-04-20T21:10:41.628Z,95182.88
2023-04-20T21:13:13.387Z,95185.53
2023-04-20T21:15:45.398Z,95181.75
2023-04-20T21:18:18.407Z,95181.13
2023-04-20T21:20:49.987Z,95183.00
2023-04-20T21:23:21.584Z,95177.09
2023-04-20T21:25:53.233Z,95179.75
2023-04-20T21:28:24.856Z,95179.50
2023-04-20T21:30:56.899Z,95176.91
2023-04-20T21:33:28.593Z,95175.44
2023-04-20T21:36:00.405Z,95172.47
2023-04-20T21:38:33.181Z,95173.41
2023-04-20T21:41:04.838Z,95178.09
2023-04-20T21:43:36.451Z,95179.66
2023-04-20T21:46:07.975Z,95178.38
2023-04-20T21:48:39.539Z,95171.94
2023-04-20T21:51:18.219Z,95164.34
2023-04-20T21:53:49.791Z,95167.41
2023-04-20T21:56:21.485Z,95171.94
2023-04-20T21:58:53.282Z,95162.19
2023-04-20T22:01:24.895Z,95169.81
2023-04-20T22:03:57.445Z,95157.31
2023-04-20T22:06:29.231Z,95172.66
2023-04-20T22:09:00.892Z,95175.16
2023-04-20T22:11:36.669Z,95171.03
2023-04-20T22:14:08.370Z,95166.50
2023-04-20T22:16:41.070Z,95167.00
2023-04-20T22:19:12.733Z,95158.00
2023-04-20T22:21:44.482Z,95170.91
2023-04-20T22:24:15.996Z,95178.84
2023-04-20T22:26:47.516Z,95181.19
2023-04-20T22:29:19.477Z,95174.41
2023-04-20T22:31:51.406Z,95164.56
2023-04-20T22:34:23.147Z,95178.22
2023-04-20T22:36:54.867Z,95179.44
2023-04-20T22:39:26.523Z,95159.78
2023-04-20T22:41:59.474Z,95162.41
2023-04-20T22:44:31.231Z,95166.44
2023-04-20T22:47:05.141Z,95168.34
2023-04-20T22:49:37.518Z,95164.91
2023-04-20T22:52:09.008Z,95156.19
2023-04-20T22:54:40.615Z,95161.56
2023-04-20T22:57:12.390Z,95167.97
2023-04-20T22:59:44.306Z,95164.56
2023-04-20T23:02:15.943Z,95165.34
2023-04-20T23:04:47.553Z,95154.72
2023-04-20T23:07:21.278Z,95159.63
2023-04-20T23:09:53.635Z,95165.47
2023-04-20T23:12:26.119Z,95162.88
2023-04-20T23:15:00.484Z,95159.19
2023-04-20T23:17:32.536Z,95163.28
2023-04-20T23:20:09.635Z,95162.53
2023-04-20T23:22:41.180Z,95171.19
2023-04-20T23:25:12.732Z,95164.78
2023-04-20T23:27:44.275Z,95165.88
2023-04-20T23:30:16.028Z,95163.50
2023-04-20T23:32:47.652Z,95160.16
2023-04-20T23:35:19.391Z,95164.34
2023-04-20T23:37:50.945Z,95170.84
2023-04-20T23:40:22.625Z,95158.34
2023-04-20T23:42:55.210Z,95154.91
2023-04-20T23:45:26.828Z,95156.56
2023-04-20T23:47:58.382Z,95165.88
2023-04-20T23:50:29.989Z,95160.34
2023-04-20T23:53:02.104Z,95158.59
2023-04-20T23:55:33.657Z,95150.72
2023-04-20T23:58:05.194Z,95145.50
